createdAt,value
2023-04-12T00:00:17.881Z,5.43
2023-04-12T00:03:07.814Z,5.28
2023-04-12T00:05:35.038Z,5.22
2023-04-12T00:08:05.195Z,5.13
2023-04-12T00:10:32.441Z,5.90
2023-04-12T00:12:59.189Z,7.18
2023-04-12T00:15:26.272Z,5.70
2023-04-12T00:17:53.292Z,6.63
2023-04-12T00:20:20.348Z,5.30
2023-04-12T00:22:47.331Z,6.15
2023-04-12T00:25:14.350Z,5.88
2023-04-12T00:27:49.111Z,6.80
2023-04-12T00:30:17.573Z,6.10
2023-04-12T00:32:44.842Z,5.88
2023-04-12T00:35:12.126Z,5.32
2023-04-12T00:37:38.995Z,6.00
2023-04-12T00:40:08.455Z,6.18
2023-04-12T00:42:36.770Z,6.07
2023-04-12T00:45:14.196Z,6.70
2023-04-12T00:47:43.531Z,6.65
2023-04-12T00:50:11.588Z,6.38
2023-04-12T00:52:48.394Z,6.40
2023-04-12T00:55:16.085Z,6.85
2023-04-12T00:57:42.982Z,6.05
2023-04-12T01:00:14.090Z,6.25
2023-04-12T01:02:51.153Z,6.75
2023-04-12T01:05:29.165Z,7.30
2023-04-12T01:11:13.050Z,6.90
2023-04-12T01:13:48.447Z,7.00
2023-04-12T01:16:35.775Z,6.30
2023-04-12T01:19:12.851Z,5.78
2023-04-12T01:21:58.771Z,6.25
2023-04-12T01:24:44.013Z,5.28
2023-04-12T01:27:13.583Z,5.63
2023-04-12T01:29:41.657Z,6.82
2023-04-12T01:32:12.304Z,6.60
2023-04-12T01:34:41.580Z,6.22
2023-04-12T01:37:09.954Z,7.38
2023-04-12T01:39:37.432Z,8.20
2023-04-12T01:42:04.489Z,7.55
2023-04-12T01:44:31.324Z,7.75
2023-04-12T01:46:58.852Z,6.47
2023-04-12T01:49:32.278Z,7.28
2023-04-12T01:52:23.899Z,7.20
2023-04-12T01:54:57.602Z,8.45
2023-04-12T01:57:26.169Z,7.97
2023-04-12T01:59:55.063Z,8.52
2023-04-12T02:02:22.595Z,7.80
2023-04-12T02:04:51.369Z,7.93
2023-04-12T02:07:20.536Z,6.40
2023-04-12T02:09:47.362Z,7.07
2023-04-12T02:12:14.406Z,7.43
2023-04-12T02:14:41.081Z,7.97
2023-04-12T02:17:08.642Z,6.63
2023-04-12T02:19:35.455Z,7.68
2023-04-12T02:22:02.500Z,7.75
2023-04-12T02:24:29.228Z,7.97
2023-04-12T02:26:58.096Z,7.70
2023-04-12T02:29:24.871Z,7.97
2023-04-12T02:31:52.544Z,8.07
2023-04-12T02:34:19.490Z,7.50
2023-04-12T02:36:50.044Z,7.82
2023-04-12T02:39:22.227Z,12.13
2023-04-12T02:41:49.508Z,7.88
2023-04-12T02:44:16.374Z,8.45
2023-04-12T02:46:43.487Z,9.52
2023-04-12T02:49:10.429Z,7.25
2023-04-12T02:51:38.511Z,9.43
2023-04-12T02:54:06.092Z,9.15
2023-04-12T02:56:36.160Z,9.05
2023-04-12T02:59:03.027Z,8.68
2023-04-12T03:01:30.160Z,7.90
2023-04-12T03:03:57.240Z,7.38
2023-04-12T03:06:24.490Z,7.07
2023-04-12T03:08:51.318Z,7.45
2023-04-12T03:11:18.378Z,6.35
2023-04-12T03:13:45.167Z,7.75
2023-04-12T03:16:42.388Z,6.80
2023-04-12T03:19:09.420Z,7.07
2023-04-12T03:21:37.542Z,7.38
2023-04-12T03:24:04.578Z,8.48
2023-04-12T03:26:31.611Z,8.20
2023-04-12T03:29:01.392Z,8.73
2023-04-12T03:31:28.685Z,8.05
2023-04-12T03:33:55.636Z,9.55
2023-04-12T03:36:31.463Z,8.98
2023-04-12T03:38:58.257Z,9.82
2023-04-12T03:41:25.605Z,9.27
2023-04-12T03:43:52.421Z,9.40
2023-04-12T03:46:20.209Z,8.90
2023-04-12T03:48:47.111Z,9.65
2023-04-12T03:51:15.467Z,9.35
2023-04-12T03:53:42.207Z,9.13
2023-04-12T03:56:09.343Z,9.10
2023-04-12T03:58:36.304Z,8.32
2023-04-12T04:01:06.828Z,8.43
2023-04-12T04:03:35.185Z,8.10
2023-04-12T04:06:02.934Z,8.40
2023-04-12T04:08:32.637Z,9.20
2023-04-12T04:11:00.942Z,8.30
2023-04-12T04:13:27.811Z,9.18
2023-04-12T04:16:09.911Z,7.43
2023-04-12T04:18:36.897Z,6.93
2023-04-12T04:21:04.257Z,7.38
2023-04-12T04:23:39.061Z,8.07
2023-04-12T04:26:10.602Z,7.55
2023-04-12T04:28:45.629Z,7.85
2023-04-12T04:31:13.662Z,7.28
2023-04-12T04:33:41.718Z,7.75
2023-04-12T04:36:09.604Z,6.68
2023-04-12T04:38:36.480Z,6.35
2023-04-12T04:41:04.595Z,6.68
2023-04-12T04:43:31.735Z,6.10
2023-04-12T04:45:58.853Z,6.05
2023-04-12T04:48:25.565Z,6.53
2023-04-12T04:50:53.392Z,7.18
2023-04-12T04:53:22.208Z,7.35
2023-04-12T04:55:49.281Z,6.80
2023-04-12T04:58:16.688Z,7.70
2023-04-12T05:00:44.965Z,7.50
2023-04-12T05:03:12.027Z,8.27
2023-04-12T05:05:40.058Z,6.97
2023-04-12T05:08:06.960Z,7.75
2023-04-12T05:10:34.153Z,6.90
2023-04-12T05:13:01.002Z,8.32
2023-04-12T05:15:28.024Z,7.07
2023-04-12T05:17:54.882Z,7.57
2023-04-12T05:20:22.188Z,8.27
2023-04-12T05:22:49.122Z,9.18
2023-04-12T05:25:16.318Z,7.20
2023-04-12T05:27:45.482Z,8.10
2023-04-12T05:30:12.708Z,7.18
2023-04-12T05:32:39.458Z,7.70
2023-04-12T05:35:06.993Z,9.60
2023-04-12T05:37:33.764Z,7.60
2023-04-12T05:40:00.905Z,8.35
2023-04-12T05:42:28.658Z,8.48
2023-04-12T05:44:56.492Z,6.63
2023-04-12T05:47:23.311Z,11.40
2023-04-12T05:49:54.175Z,7.57
2023-04-12T05:52:21.136Z,7.10
2023-04-12T05:54:48.127Z,7.97
2023-04-12T05:57:16.049Z,8.68
2023-04-12T05:59:45.485Z,8.45
2023-04-12T06:02:12.430Z,7.75
2023-04-12T06:04:50.300Z,9.27
2023-04-12T06:07:27.933Z,8.15
2023-04-12T06:09:55.406Z,10.43
2023-04-12T06:12:22.334Z,9.77
2023-04-12T06:14:49.469Z,9.63
2023-04-12T06:17:16.279Z,11.70
2023-04-12T06:19:43.357Z,8.88
2023-04-12T06:22:10.529Z,11.43
2023-04-12T06:24:37.594Z,8.75
2023-04-12T06:27:04.418Z,7.68
2023-04-12T06:29:31.539Z,8.55
2023-04-12T06:31:58.442Z,7.60
2023-04-12T06:34:25.828Z,7.45
2023-04-12T06:36:52.568Z,9.20
2023-04-12T06:39:19.658Z,7.45
2023-04-12T06:41:50.556Z,8.98
2023-04-12T06:44:17.737Z,8.02
2023-04-12T06:46:45.084Z,9.50
2023-04-12T06:49:12.432Z,11.02
2023-04-12T06:51:39.371Z,8.88
2023-04-12T06:54:06.386Z,8.50
2023-04-12T06:56:33.168Z,9.05
2023-04-12T06:59:00.526Z,8.25
2023-04-12T07:01:27.567Z,22.27
2023-04-12T07:03:55.218Z,9.10
2023-04-12T07:06:25.684Z,13.68
2023-04-12T07:09:09.229Z,8.95
2023-04-12T07:11:36.097Z,8.40
2023-04-12T07:14:03.282Z,7.53
2023-04-12T07:16:31.723Z,11.15
2023-04-12T07:19:00.655Z,7.38
2023-04-12T07:21:27.885Z,7.85
2023-04-12T07:23:56.097Z,7.70
2023-04-12T07:26:23.633Z,10.00
2023-04-12T07:28:51.294Z,7.07
2023-04-12T07:31:18.310Z,7.90
2023-04-12T07:33:45.559Z,6.70
2023-04-12T07:36:12.531Z,6.00
2023-04-12T07:38:39.705Z,5.30
2023-04-12T07:41:06.582Z,5.30
2023-04-12T07:43:33.904Z,9.80
2023-04-12T07:46:04.581Z,5.47
2023-04-12T07:48:31.667Z,4.40
2023-04-12T07:50:58.504Z,7.05
2023-04-12T07:53:27.865Z,20.70
2023-04-12T07:55:56.194Z,5.95
2023-04-12T07:58:32.088Z,5.03
2023-04-12T08:01:01.068Z,9.90
2023-04-12T08:03:28.793Z,8.73
2023-04-12T08:05:55.903Z,4.75
2023-04-12T08:08:27.816Z,4.90
2023-04-12T08:10:54.684Z,5.07
2023-04-12T08:13:21.761Z,4.82
2023-04-12T08:15:49.112Z,4.35
2023-04-12T08:18:16.334Z,5.00
2023-04-12T08:20:46.087Z,9.70
2023-04-12T08:23:13.550Z,4.45
2023-04-12T08:25:41.290Z,3.85
2023-04-12T08:28:08.621Z,17.17
2023-04-12T08:30:36.810Z,7.68
2023-04-12T08:33:04.202Z,4.50
2023-04-12T08:35:31.894Z,4.45
2023-04-12T08:38:08.330Z,5.30
2023-04-12T08:40:35.806Z,4.93
2023-04-12T08:43:07.726Z,4.78
2023-04-12T08:45:36.413Z,7.72
2023-04-12T08:48:05.852Z,5.90
2023-04-12T08:50:32.981Z,6.30
2023-04-12T08:53:00.176Z,13.15
2023-04-12T08:55:27.329Z,8.50
2023-04-12T08:57:58.663Z,11.20
2023-04-12T09:02:53.635Z,5.65
2023-04-12T09:05:23.181Z,7.25
2023-04-12T09:07:50.708Z,8.48
2023-04-12T09:10:32.754Z,28.02
2023-04-12T09:13:00.990Z,8.52
2023-04-12T09:15:27.724Z,13.95
2023-04-12T09:18:11.688Z,6.75
2023-04-12T09:20:39.318Z,6.15
2023-04-12T09:23:20.672Z,6.45
2023-04-12T09:25:52.789Z,7.05
2023-04-12T09:28:29.736Z,5.68
2023-04-12T09:31:06.576Z,5.03
2023-04-12T09:33:38.027Z,5.38
2023-04-12T09:36:06.710Z,4.50
2023-04-12T09:38:36.868Z,4.80
2023-04-12T09:41:21.578Z,4.47
2023-04-12T09:43:50.738Z,3.63
2023-04-12T09:46:17.580Z,4.03
2023-04-12T09:48:53.123Z,4.68
2023-04-12T09:51:37.355Z,4.22
2023-04-12T09:54:06.595Z,3.70
2023-04-12T09:56:35.952Z,4.28
2023-04-12T09:59:12.197Z,4.60
2023-04-12T10:01:40.393Z,4.20
2023-04-12T10:04:09.167Z,4.22
2023-04-12T10:06:37.327Z,3.42
2023-04-12T10:09:05.566Z,3.50
2023-04-12T10:11:34.058Z,3.67
2023-04-12T10:14:04.009Z,4.05
2023-04-12T10:16:33.655Z,5.25
2023-04-12T10:19:04.441Z,3.60
2023-04-12T10:21:31.591Z,3.50
2023-04-12T10:23:59.089Z,3.30
2023-04-12T10:26:26.601Z,4.82
2023-04-12T10:29:22.606Z,4.07
2023-04-12T10:31:50.440Z,5.20
2023-04-12T10:34:17.710Z,4.90
2023-04-12T10:36:52.544Z,4.30
2023-04-12T10:39:41.051Z,5.78
2023-04-12T10:42:23.579Z,4.60
2023-04-12T10:44:52.417Z,4.78
2023-04-12T10:47:53.842Z,5.00
2023-04-12T10:50:35.351Z,5.10
2023-04-12T10:53:17.680Z,5.88
2023-04-12T10:55:45.658Z,5.22
2023-04-12T10:58:50.764Z,5.47
2023-04-12T11:01:18.806Z,3.75
2023-04-12T11:04:06.038Z,4.00
2023-04-12T11:07:04.996Z,5.60
2023-04-12T11:09:34.705Z,5.40
2023-04-12T11:12:04.938Z,4.68
2023-04-12T11:14:49.601Z,4.90
2023-04-12T11:17:16.938Z,5.38
2023-04-12T11:19:50.298Z,5.60
2023-04-12T11:22:18.995Z,5.88
2023-04-12T11:24:48.317Z,5.75
2023-04-12T11:27:18.957Z,6.65
2023-04-12T11:29:49.623Z,4.95
2023-04-12T11:32:17.310Z,5.60
2023-04-12T11:34:46.991Z,5.65
2023-04-12T11:37:14.694Z,5.63
2023-04-12T11:39:43.217Z,5.97
2023-04-12T11:42:18.561Z,5.13
2023-04-12T11:44:57.317Z,5.20
2023-04-12T11:47:26.336Z,4.90
2023-04-12T11:49:58.102Z,5.00
2023-04-12T11:52:30.735Z,4.82
2023-04-12T11:55:06.899Z,4.30
2023-04-12T11:57:34.849Z,5.30
2023-04-12T12:00:06.446Z,5.30
2023-04-12T12:02:41.289Z,4.75
2023-04-12T12:05:23.636Z,5.35
2023-04-12T12:07:52.804Z,5.00
2023-04-12T12:10:37.662Z,4.28
2023-04-12T12:13:15.013Z,4.25
2023-04-12T12:15:46.156Z,3.78
2023-04-12T12:18:13.391Z,4.20
2023-04-12T12:21:03.021Z,4.95
2023-04-12T12:23:31.408Z,4.82
2023-04-12T12:26:14.246Z,5.32
2023-04-12T12:28:57.841Z,5.03
2023-04-12T12:31:27.985Z,4.57
2023-04-12T12:33:57.615Z,4.63
2023-04-12T12:36:34.643Z,4.80
2023-04-12T12:39:12.553Z,4.40
2023-04-12T12:41:40.836Z,4.80
2023-04-12T12:44:08.422Z,5.30
2023-04-12T12:49:06.141Z,4.75
2023-04-12T12:51:33.269Z,5.15
2023-04-12T12:54:01.189Z,5.07
2023-04-12T12:56:28.218Z,5.15
2023-04-12T12:58:55.916Z,4.65
2023-04-12T13:01:22.928Z,4.93
2023-04-12T13:03:50.411Z,5.47
2023-04-12T13:06:17.708Z,6.80
2023-04-12T13:08:44.881Z,6.47
2023-04-12T13:11:14.839Z,5.90
2023-04-12T13:13:43.643Z,6.03
2023-04-12T13:16:11.070Z,6.50
2023-04-12T13:18:38.319Z,5.75
2023-04-12T13:21:05.372Z,6.80
2023-04-12T13:23:32.590Z,6.55
2023-04-12T13:25:59.689Z,6.60
2023-04-12T13:28:26.986Z,6.55
2023-04-12T13:30:53.900Z,6.85
2023-04-12T13:33:22.505Z,7.53
2023-04-12T13:35:49.560Z,6.68
2023-04-12T13:38:16.984Z,6.47
2023-04-12T13:40:43.873Z,7.32
2023-04-12T13:43:11.246Z,11.18
2023-04-12T13:45:38.235Z,10.38
2023-04-12T13:48:05.541Z,6.97
2023-04-12T13:50:32.541Z,12.07
2023-04-12T13:52:59.781Z,15.70
2023-04-12T13:55:26.572Z,17.42
2023-04-12T13:57:53.751Z,12.75
2023-04-12T14:00:21.471Z,34.45
2023-04-12T14:02:48.792Z,8.60
2023-04-12T14:05:16.075Z,7.90
2023-04-12T14:07:43.502Z,41.25
2023-04-12T14:10:11.086Z,7.57
2023-04-12T14:12:38.248Z,31.00
2023-04-12T14:15:08.829Z,21.63
2023-04-12T14:17:36.338Z,23.20
2023-04-12T14:20:06.454Z,18.35
2023-04-12T14:22:33.873Z,6.57
2023-04-12T14:25:00.918Z,21.77
2023-04-12T14:27:28.464Z,6.32
2023-04-12T14:29:55.441Z,9.93
2023-04-12T14:32:22.821Z,19.92
2023-04-12T14:34:49.620Z,7.43
2023-04-12T14:37:16.927Z,10.70
2023-04-12T14:39:44.479Z,18.52
2023-04-12T14:42:14.032Z,22.40
2023-04-12T14:44:41.018Z,32.42
2023-04-12T14:47:11.287Z,54.33
2023-04-12T14:49:38.438Z,44.03
2023-04-12T14:52:06.719Z,31.42
2023-04-12T14:54:33.898Z,6.68
2023-04-12T14:57:01.020Z,45.67
2023-04-12T14:59:28.127Z,26.52
2023-04-12T15:01:55.452Z,98.50
2023-04-12T15:04:22.450Z,11.68
2023-04-12T15:06:49.845Z,17.60
2023-04-12T15:09:17.748Z,21.40
2023-04-12T15:11:49.514Z,19.25
2023-04-12T15:14:17.940Z,16.15
2023-04-12T15:16:46.860Z,27.88
2023-04-12T15:19:19.750Z,7.10
2023-04-12T15:21:51.150Z,11.07
2023-04-12T15:24:26.271Z,27.80
2023-04-12T15:26:53.580Z,24.80
2023-04-12T15:29:22.494Z,15.13
2023-04-12T15:31:50.490Z,5.95
2023-04-12T15:34:17.628Z,11.45
2023-04-12T15:36:45.986Z,7.85
2023-04-12T15:39:13.650Z,4.30
2023-04-12T15:41:44.130Z,5.13
2023-04-12T15:44:14.746Z,29.88
2023-04-12T15:49:14.822Z,18.92
2023-04-12T15:51:42.477Z,11.93
2023-04-12T15:54:09.505Z,41.40
2023-04-12T15:56:38.134Z,7.13
2023-04-12T15:59:06.189Z,4.68
2023-04-12T16:01:35.838Z,7.03
2023-04-12T16:04:03.347Z,5.72
2023-04-12T16:06:34.712Z,31.70
2023-04-12T16:09:02.420Z,8.23
2023-04-12T16:11:29.949Z,7.05
2023-04-12T16:13:58.296Z,7.75
2023-04-12T16:16:25.490Z,5.60
2023-04-12T16:18:53.398Z,4.55
2023-04-12T16:21:22.338Z,9.70
2023-04-12T16:23:51.482Z,5.90
2023-04-12T16:26:23.498Z,5.50
2023-04-12T16:28:53.464Z,12.00
2023-04-12T16:31:21.347Z,5.63
2023-04-12T16:33:52.113Z,11.30
2023-04-12T16:36:22.240Z,8.32
2023-04-12T16:38:50.084Z,13.52
2023-04-12T16:41:18.736Z,17.67
2023-04-12T16:43:45.743Z,8.38
2023-04-12T16:46:13.009Z,8.32
2023-04-12T16:48:41.219Z,5.85
2023-04-12T16:51:08.916Z,5.60
2023-04-12T16:53:36.640Z,6.80
2023-04-12T16:56:04.643Z,7.28
2023-04-12T16:58:33.156Z,6.47
2023-04-12T17:01:01.721Z,6.25
2023-04-12T17:03:29.039Z,6.05
2023-04-12T17:05:56.719Z,5.90
2023-04-12T17:08:24.396Z,6.60
2023-04-12T17:10:51.906Z,7.30
2023-04-12T17:13:20.511Z,7.00
2023-04-12T17:15:48.526Z,8.90
2023-04-12T17:18:15.864Z,9.43
2023-04-12T17:20:44.127Z,9.85
2023-04-12T17:23:11.597Z,12.10
2023-04-12T17:25:39.388Z,12.15
2023-04-12T17:28:08.578Z,13.30
2023-04-12T17:30:36.160Z,22.35
2023-04-12T17:33:03.934Z,13.32
2023-04-12T17:35:31.207Z,16.98
2023-04-12T17:37:58.085Z,17.13
2023-04-12T17:40:27.107Z,19.48
2023-04-12T17:42:54.425Z,16.17
2023-04-12T17:45:22.161Z,19.75
2023-04-12T17:47:49.656Z,19.75
2023-04-12T17:50:17.651Z,22.42
2023-04-12T17:52:45.689Z,30.60
2023-04-12T17:55:12.943Z,24.20
2023-04-12T17:57:40.483Z,25.98
2023-04-12T18:00:14.399Z,24.48
2023-04-12T18:02:47.543Z,22.88
2023-04-12T18:05:15.553Z,25.85
2023-04-12T18:07:42.652Z,35.55
2023-04-12T18:10:12.710Z,38.63
2023-04-12T18:12:40.969Z,42.10
2023-04-12T18:15:09.193Z,42.28
2023-04-12T18:17:36.414Z,39.15
2023-04-12T18:20:09.622Z,37.30
2023-04-12T18:22:37.739Z,42.05
2023-04-12T18:25:07.004Z,40.58
2023-04-12T18:27:34.071Z,40.53
2023-04-12T18:30:03.979Z,39.35
2023-04-12T18:32:31.159Z,35.92
2023-04-12T18:34:58.945Z,33.83
2023-04-12T18:37:25.963Z,35.28
2023-04-12T18:39:55.534Z,44.53
2023-04-12T18:42:27.078Z,43.83
2023-04-12T18:44:56.438Z,40.90
2023-04-12T18:47:24.099Z,40.20
2023-04-12T18:49:51.529Z,39.72
2023-04-12T18:52:19.018Z,38.38
2023-04-12T18:54:46.636Z,40.38
2023-04-12T18:57:17.716Z,41.45
2023-04-12T18:59:47.946Z,40.83
2023-04-12T19:02:15.310Z,39.22
2023-04-12T19:04:44.344Z,43.15
2023-04-12T19:07:11.488Z,38.25
2023-04-12T19:09:39.136Z,32.78
2023-04-12T19:12:06.551Z,36.63
2023-04-12T19:14:34.056Z,40.78
2023-04-12T19:17:01.582Z,34.30
2023-04-12T19:19:29.723Z,25.15
2023-04-12T19:21:57.347Z,22.67
2023-04-12T19:24:24.504Z,24.13
2023-04-12T19:26:51.503Z,19.80
2023-04-12T19:29:19.816Z,21.38
2023-04-12T19:31:52.114Z,16.60
2023-04-12T19:34:19.280Z,16.88
2023-04-12T19:36:46.330Z,15.13
2023-04-12T19:39:13.599Z,15.32
2023-04-12T19:41:41.129Z,13.80
2023-04-12T19:44:09.048Z,14.75
2023-04-12T19:46:38.952Z,15.60
2023-04-12T19:49:09.544Z,15.02
2023-04-12T19:51:37.794Z,14.35
2023-04-12T19:54:04.899Z,16.58
2023-04-12T19:56:31.819Z,16.30
2023-04-12T19:59:00.021Z,15.43
2023-04-12T20:01:27.399Z,18.05
2023-04-12T20:03:54.703Z,15.73
2023-04-12T20:06:23.316Z,16.60
2023-04-12T20:08:50.321Z,14.95
2023-04-12T20:11:17.629Z,15.13
2023-04-12T20:13:45.590Z,15.40
2023-04-12T20:16:12.607Z,16.40
2023-04-12T20:18:39.869Z,16.33
2023-04-12T20:21:09.925Z,16.90
2023-04-12T20:23:37.102Z,17.33
2023-04-12T20:26:04.125Z,14.43
2023-04-12T20:28:31.263Z,16.63
2023-04-12T20:30:58.116Z,15.13
2023-04-12T20:33:25.415Z,16.80
2023-04-12T20:35:52.384Z,16.73
2023-04-12T20:38:19.663Z,17.85
2023-04-12T20:40:47.076Z,17.35
2023-04-12T20:43:14.492Z,16.23
2023-04-12T20:45:41.287Z,18.20
2023-04-12T20:48:09.838Z,19.20
2023-04-12T20:50:37.216Z,17.38
2023-04-12T20:53:04.719Z,17.35
2023-04-12T20:55:35.001Z,14.52
2023-04-12T20:58:03.980Z,17.50
2023-04-12T21:00:37.760Z,15.98
2023-04-12T21:03:05.189Z,16.02
2023-04-12T21:05:35.751Z,15.20
2023-04-12T21:08:03.220Z,16.50
2023-04-12T21:10:30.258Z,17.30
2023-04-12T21:12:58.357Z,16.73
2023-04-12T21:15:25.229Z,16.02
2023-04-12T21:17:52.378Z,15.98
2023-04-12T21:20:19.652Z,16.67
2023-04-12T21:22:47.932Z,16.42
2023-04-12T21:25:16.272Z,17.40
2023-04-12T21:27:53.154Z,17.48
2023-04-12T21:30:20.554Z,18.90
2023-04-12T21:32:47.912Z,17.33
2023-04-12T21:35:16.481Z,17.83
2023-04-12T21:37:43.835Z,18.45
2023-04-12T21:40:12.753Z,19.15
2023-04-12T21:42:41.064Z,17.27
2023-04-12T21:45:09.712Z,53.33
2023-04-12T21:47:39.425Z,18.95
2023-04-12T21:50:10.022Z,23.80
2023-04-12T21:52:37.600Z,20.25
2023-04-12T21:55:07.448Z,19.38
2023-04-12T21:57:35.423Z,17.65
2023-04-12T22:00:05.314Z,17.17
2023-04-12T22:02:32.699Z,18.02
2023-04-12T22:04:59.827Z,17.15
2023-04-12T22:07:27.904Z,16.77
2023-04-12T22:09:54.660Z,16.25
2023-04-12T22:12:23.025Z,26.90
2023-04-12T22:14:49.948Z,16.25
2023-04-12T22:17:18.320Z,16.17
2023-04-12T22:19:45.567Z,16.65
2023-04-12T22:22:14.307Z,18.38
2023-04-12T22:24:41.298Z,18.85
2023-04-12T22:27:09.372Z,15.77
2023-04-12T22:29:37.790Z,21.05
2023-04-12T22:32:05.279Z,18.15
2023-04-12T22:34:32.581Z,23.23
2023-04-12T22:36:59.705Z,16.40
2023-04-12T22:39:27.026Z,15.70
2023-04-12T22:41:57.579Z,16.90
2023-04-12T22:44:38.183Z,16.33
2023-04-12T22:47:09.124Z,16.02
2023-04-12T22:49:45.429Z,19.98
2023-04-12T22:52:13.627Z,14.85
2023-04-12T22:54:40.478Z,21.67
2023-04-12T22:57:07.523Z,18.65
2023-04-12T22:59:35.005Z,21.52
2023-04-12T23:02:02.461Z,16.75
2023-04-12T23:04:29.468Z,16.20
2023-04-12T23:06:56.526Z,17.05
2023-04-12T23:09:23.346Z,19.40
2023-04-12T23:11:51.656Z,24.73
2023-04-12T23:14:18.649Z,22.02
2023-04-12T23:16:54.571Z,17.80
2023-04-12T23:19:37.105Z,16.58
2023-04-12T23:22:05.176Z,15.88
2023-04-12T23:24:31.944Z,16.63
2023-04-12T23:27:00.489Z,18.45
2023-04-12T23:29:27.676Z,18.40
2023-04-12T23:31:54.776Z,17.27
2023-04-12T23:34:22.202Z,18.20
2023-04-12T23:36:51.980Z,16.90
2023-04-12T23:39:18.791Z,17.10
2023-04-12T23:41:46.690Z,18.70
2023-04-12T23:44:13.803Z,16.50
2023-04-12T23:46:40.903Z,20.38
2023-04-12T23:49:08.578Z,16.08
2023-04-12T23:51:35.589Z,18.02
2023-04-12T23:54:02.378Z,16.20
2023-04-12T23:56:29.452Z,17.48
2023-04-12T23:58:56.419Z,22.23
